createdAt,value
2023-05-25T00:01:44.829Z,18.67
2023-05-25T00:04:17.075Z,18.73
2023-05-25T00:06:45.487Z,18.90
2023-05-25T00:09:12.533Z,18.80
2023-05-25T00:11:39.590Z,20.80
2023-05-25T00:14:08.349Z,19.53
2023-05-25T00:16:37.736Z,19.60
2023-05-25T00:19:10.686Z,19.77
2023-05-25T00:21:41.479Z,20.43
2023-05-25T00:24:08.505Z,20.57
2023-05-25T00:26:35.584Z,20.20
2023-05-25T00:29:02.958Z,21.40
2023-05-25T00:31:33.578Z,21.00
2023-05-25T00:34:00.690Z,19.50
2023-05-25T00:36:27.596Z,21.33
2023-05-25T00:38:54.409Z,20.97
2023-05-25T00:41:21.240Z,22.17
2023-05-25T00:43:48.036Z,22.33
2023-05-25T00:46:15.039Z,21.73
2023-05-25T00:48:44.429Z,22.40
2023-05-25T00:51:11.482Z,21.57
2023-05-25T00:53:38.533Z,23.13
2023-05-25T00:56:15.991Z,23.80
2023-05-25T00:58:45.400Z,23.17
2023-05-25T01:01:12.446Z,23.87
2023-05-25T01:03:40.287Z,23.10
2023-05-25T01:06:13.254Z,22.67
2023-05-25T01:08:44.203Z,24.33
2023-05-25T01:11:11.783Z,24.00
2023-05-25T01:13:38.843Z,21.83
2023-05-25T01:16:09.609Z,24.43
2023-05-25T01:18:41.927Z,24.30
2023-05-25T01:21:24.049Z,26.63
2023-05-25T01:23:56.669Z,25.63
2023-05-25T01:26:26.573Z,26.40
2023-05-25T01:28:54.062Z,25.53
2023-05-25T01:31:24.073Z,26.90
2023-05-25T01:33:53.455Z,27.70
2023-05-25T01:36:21.004Z,27.73
2023-05-25T01:38:47.903Z,27.03
2023-05-25T01:41:15.057Z,26.70
2023-05-25T01:43:41.839Z,28.33
2023-05-25T01:46:17.982Z,26.43
2023-05-25T01:49:21.337Z,27.63
2023-05-25T01:51:52.812Z,28.00
2023-05-25T01:54:20.024Z,28.43
2023-05-25T01:56:48.278Z,28.03
2023-05-25T01:59:15.619Z,28.97
2023-05-25T02:01:42.971Z,29.70
2023-05-25T02:04:09.852Z,28.77
2023-05-25T02:06:37.228Z,28.00
2023-05-25T02:09:04.534Z,28.43
2023-05-25T02:11:31.325Z,28.33
2023-05-25T02:13:58.130Z,28.40
2023-05-25T02:16:25.036Z,27.97
2023-05-25T02:18:51.963Z,26.87
2023-05-25T02:21:18.761Z,27.00
2023-05-25T02:23:49.355Z,26.60
2023-05-25T02:26:16.821Z,28.93
2023-05-25T02:28:45.987Z,26.90
2023-05-25T02:31:12.870Z,27.40
2023-05-25T02:33:41.968Z,26.90
2023-05-25T02:36:09.037Z,27.30
2023-05-25T02:38:35.831Z,26.67
2023-05-25T02:41:05.302Z,27.97
2023-05-25T02:43:32.708Z,27.43
2023-05-25T02:45:59.502Z,27.37
2023-05-25T02:48:26.323Z,26.37
2023-05-25T02:50:55.432Z,25.80
2023-05-25T02:53:22.466Z,26.63
2023-05-25T02:55:49.314Z,25.17
2023-05-25T02:58:16.674Z,27.90
2023-05-25T03:00:46.932Z,26.67
2023-05-25T03:03:13.911Z,27.00
2023-05-25T03:05:41.875Z,25.53
2023-05-25T03:08:08.697Z,25.97
2023-05-25T03:10:35.502Z,25.63
2023-05-25T03:13:02.295Z,25.20
2023-05-25T03:15:29.130Z,25.73
2023-05-25T03:18:01.145Z,25.13
2023-05-25T03:20:28.419Z,26.40
2023-05-25T03:22:55.652Z,25.30
2023-05-25T03:25:22.451Z,24.87
2023-05-25T03:27:52.977Z,25.43
2023-05-25T03:30:21.217Z,26.23
2023-05-25T03:32:48.104Z,26.77
2023-05-25T03:35:15.058Z,26.43
2023-05-25T03:37:41.883Z,25.77
2023-05-25T03:40:11.864Z,25.40
2023-05-25T03:42:38.813Z,26.70
2023-05-25T03:45:06.641Z,26.77
2023-05-25T03:47:33.619Z,25.77
2023-05-25T03:50:02.728Z,27.03
2023-05-25T03:52:29.638Z,26.30
2023-05-25T03:54:56.763Z,25.57
2023-05-25T03:57:23.599Z,27.20
2023-05-25T03:59:50.402Z,26.83
2023-05-25T04:02:22.316Z,26.93
2023-05-25T04:04:52.096Z,27.37
2023-05-25T04:07:19.933Z,26.57
2023-05-25T04:09:46.728Z,27.17
2023-05-25T04:12:15.788Z,27.50
2023-05-25T04:14:42.730Z,27.07
2023-05-25T04:17:09.806Z,27.47
2023-05-25T04:19:36.610Z,29.87
2023-05-25T04:22:03.514Z,28.40
2023-05-25T04:24:34.261Z,28.67
2023-05-25T04:27:06.114Z,28.70
2023-05-25T04:29:35.230Z,27.70
2023-05-25T04:32:02.905Z,27.73
2023-05-25T04:34:33.913Z,26.70
2023-05-25T04:37:05.462Z,26.53
2023-05-25T04:39:32.954Z,27.23
2023-05-25T04:42:04.391Z,27.43
2023-05-25T04:44:32.162Z,27.57
2023-05-25T04:47:02.525Z,27.33
2023-05-25T04:49:29.634Z,27.03
2023-05-25T04:51:56.504Z,26.90
2023-05-25T04:54:27.691Z,26.93
2023-05-25T04:56:57.381Z,28.83
2023-05-25T04:59:26.775Z,28.00
2023-05-25T05:01:53.655Z,27.13
2023-05-25T05:04:22.913Z,27.53
2023-05-25T05:06:52.220Z,27.20
2023-05-25T05:09:19.234Z,27.07
2023-05-25T05:11:46.135Z,26.77
2023-05-25T05:14:12.903Z,28.43
2023-05-25T05:16:39.720Z,27.30
2023-05-25T05:19:06.821Z,26.70
2023-05-25T05:21:33.643Z,26.93
2023-05-25T05:24:00.587Z,26.20
2023-05-25T05:26:27.844Z,27.50
2023-05-25T05:29:02.113Z,28.30
2023-05-25T05:31:31.828Z,27.17
2023-05-25T05:33:58.711Z,25.77
2023-05-25T05:36:25.789Z,23.93
2023-05-25T05:38:52.696Z,24.63
2023-05-25T05:41:19.529Z,23.83
2023-05-25T05:43:50.771Z,24.87
2023-05-25T05:46:17.843Z,23.50
2023-05-25T05:48:46.928Z,24.03
2023-05-25T05:51:13.799Z,23.93
2023-05-25T05:53:40.911Z,25.50
2023-05-25T05:56:17.445Z,25.43
2023-05-25T05:58:44.760Z,25.10
2023-05-25T06:01:11.543Z,26.17
2023-05-25T06:03:38.683Z,23.87
2023-05-25T06:06:08.261Z,24.57
2023-05-25T06:08:35.230Z,25.47
2023-05-25T06:11:04.158Z,25.80
2023-05-25T06:13:31.067Z,25.03
2023-05-25T06:15:57.909Z,25.20
2023-05-25T06:18:24.703Z,25.87
2023-05-25T06:20:51.559Z,25.67
2023-05-25T06:23:20.850Z,25.33
2023-05-25T06:25:47.969Z,23.33
2023-05-25T06:28:15.377Z,24.67
2023-05-25T06:30:42.172Z,24.97
2023-05-25T06:33:09.075Z,26.27
2023-05-25T06:35:35.964Z,25.10
2023-05-25T06:38:03.118Z,24.80
2023-05-25T06:40:29.949Z,25.27
2023-05-25T06:42:56.897Z,25.80
2023-05-25T06:45:23.787Z,25.90
2023-05-25T06:47:50.662Z,25.03
2023-05-25T06:50:18.222Z,25.97
2023-05-25T06:52:47.457Z,25.53
2023-05-25T06:55:14.263Z,25.83
2023-05-25T06:57:41.338Z,26.33
2023-05-25T07:00:12.177Z,24.63
2023-05-25T07:02:39.526Z,25.87
2023-05-25T07:05:06.759Z,25.20
2023-05-25T07:07:33.689Z,24.07
2023-05-25T07:10:01.505Z,25.70
2023-05-25T07:12:31.505Z,24.60
2023-05-25T07:14:58.543Z,23.53
2023-05-25T07:17:25.551Z,23.87
2023-05-25T07:19:52.690Z,24.37
2023-05-25T07:22:19.703Z,25.93
2023-05-25T07:24:46.972Z,24.90
2023-05-25T07:27:16.690Z,24.70
2023-05-25T07:29:43.546Z,25.23
2023-05-25T07:32:12.813Z,24.43
2023-05-25T07:34:39.660Z,24.73
2023-05-25T07:37:06.623Z,24.70
2023-05-25T07:39:33.425Z,27.10
2023-05-25T07:42:01.958Z,26.03
2023-05-25T07:44:31.390Z,24.93
2023-05-25T07:46:58.233Z,24.70
2023-05-25T07:49:25.127Z,25.27
2023-05-25T07:51:51.907Z,25.67
2023-05-25T07:54:18.716Z,25.23
2023-05-25T07:56:45.509Z,24.70
2023-05-25T07:59:12.363Z,25.00
2023-05-25T08:01:39.399Z,27.70
2023-05-25T08:04:06.400Z,24.43
2023-05-25T08:06:34.413Z,27.00
2023-05-25T08:09:03.062Z,24.60
2023-05-25T08:11:31.264Z,25.40
2023-05-25T08:13:58.084Z,26.07
2023-05-25T08:16:27.188Z,24.37
2023-05-25T08:18:54.074Z,25.10
2023-05-25T08:21:21.151Z,23.90
2023-05-25T08:23:48.091Z,22.93
2023-05-25T08:26:34.298Z,24.53
2023-05-25T08:29:04.701Z,23.40
2023-05-25T08:31:32.713Z,23.60
2023-05-25T08:34:00.627Z,25.03
2023-05-25T08:36:27.649Z,22.97
2023-05-25T08:38:57.133Z,22.50
2023-05-25T08:41:24.070Z,24.13
2023-05-25T08:43:51.040Z,23.97
2023-05-25T08:46:30.082Z,24.33
2023-05-25T08:49:02.908Z,23.30
2023-05-25T08:51:37.045Z,20.80
2023-05-25T08:54:12.579Z,23.57
2023-05-25T08:56:45.598Z,21.90
2023-05-25T08:59:43.700Z,23.00
2023-05-25T09:02:34.867Z,22.53
2023-05-25T09:05:02.208Z,19.23
2023-05-25T09:07:29.508Z,21.60
2023-05-25T09:09:56.498Z,22.20
2023-05-25T09:12:23.853Z,21.77
2023-05-25T09:14:51.203Z,22.67
2023-05-25T09:17:18.745Z,18.87
2023-05-25T09:19:46.508Z,21.83
2023-05-25T09:22:16.743Z,21.70
2023-05-25T09:24:45.573Z,21.53
2023-05-25T09:27:13.539Z,18.60
2023-05-25T09:29:46.439Z,20.87
2023-05-25T09:32:13.258Z,19.13
2023-05-25T09:34:40.098Z,19.77
2023-05-25T09:37:14.546Z,20.90
2023-05-25T09:39:44.501Z,20.37
2023-05-25T09:42:11.787Z,18.93
2023-05-25T09:44:39.816Z,20.40
2023-05-25T09:47:09.026Z,20.37
2023-05-25T09:49:36.420Z,20.50
2023-05-25T09:52:03.278Z,19.80
2023-05-25T09:54:30.098Z,20.70
2023-05-25T09:57:05.258Z,20.90
2023-05-25T09:59:32.243Z,21.23
2023-05-25T10:02:01.630Z,21.13
2023-05-25T10:04:28.556Z,21.83
2023-05-25T10:06:56.840Z,22.30
2023-05-25T10:09:23.663Z,21.47
2023-05-25T10:11:51.499Z,17.87
2023-05-25T10:14:22.884Z,21.97
2023-05-25T10:16:51.955Z,21.03
2023-05-25T10:19:34.634Z,22.07
2023-05-25T10:22:17.051Z,21.90
2023-05-25T10:24:57.941Z,22.50
2023-05-25T10:30:12.601Z,19.10
2023-05-25T10:32:39.532Z,20.87
2023-05-25T10:35:09.126Z,22.30
2023-05-25T10:37:38.191Z,20.93
2023-05-25T10:40:08.563Z,20.83
2023-05-25T10:42:37.180Z,21.37
2023-05-25T10:45:06.495Z,20.83
2023-05-25T10:47:34.854Z,20.80
2023-05-25T10:50:03.115Z,20.33
2023-05-25T10:52:33.206Z,21.47
2023-05-25T10:55:05.037Z,19.83
2023-05-25T10:57:32.246Z,18.83
2023-05-25T11:00:06.548Z,18.40
2023-05-25T11:02:55.943Z,18.23
2023-05-25T11:05:32.561Z,19.80
2023-05-25T11:08:05.105Z,18.53
2023-05-25T11:10:48.455Z,16.25
2023-05-25T11:13:39.758Z,16.50
2023-05-25T11:16:36.141Z,15.53
2023-05-25T11:19:03.351Z,16.67
2023-05-25T11:21:32.909Z,18.02
2023-05-25T11:24:04.356Z,15.68
2023-05-25T11:26:35.286Z,15.38
2023-05-25T11:29:14.931Z,14.75
2023-05-25T11:31:44.069Z,15.13
2023-05-25T11:34:11.951Z,15.95
2023-05-25T11:36:39.467Z,13.40
2023-05-25T11:39:17.046Z,13.80
2023-05-25T11:42:02.006Z,12.93
2023-05-25T11:44:33.784Z,13.27
2023-05-25T11:47:09.849Z,12.90
2023-05-25T11:49:49.864Z,13.57
2023-05-25T11:52:20.448Z,12.82
2023-05-25T11:54:47.455Z,11.25
2023-05-25T11:57:24.961Z,11.98
2023-05-25T12:00:01.210Z,9.63
2023-05-25T12:02:28.178Z,11.43
2023-05-25T12:04:59.702Z,12.82
2023-05-25T12:07:26.793Z,11.38
2023-05-25T12:10:07.929Z,10.32
2023-05-25T12:12:44.544Z,11.15
2023-05-25T12:15:15.140Z,11.45
2023-05-25T12:17:45.117Z,11.20
2023-05-25T12:20:15.547Z,10.93
2023-05-25T12:22:42.756Z,9.90
2023-05-25T12:25:13.212Z,9.68
2023-05-25T12:27:42.608Z,10.30
2023-05-25T12:30:10.556Z,11.35
2023-05-25T12:33:04.484Z,9.75
2023-05-25T12:35:45.420Z,10.65
2023-05-25T12:38:17.704Z,11.02
2023-05-25T12:40:45.148Z,10.10
2023-05-25T12:43:13.162Z,10.23
2023-05-25T12:45:41.940Z,9.65
2023-05-25T12:48:08.863Z,9.25
2023-05-25T12:50:38.044Z,11.90
2023-05-25T12:53:04.931Z,11.60
2023-05-25T12:55:33.170Z,10.52
2023-05-25T12:58:06.526Z,11.77
2023-05-25T13:00:37.859Z,10.75
2023-05-25T13:03:05.471Z,9.18
2023-05-25T13:05:35.534Z,9.98
2023-05-25T13:08:03.087Z,10.02
2023-05-25T13:10:32.897Z,9.55
2023-05-25T13:12:59.889Z,9.68
2023-05-25T13:15:27.081Z,9.02
2023-05-25T13:17:54.499Z,9.05
2023-05-25T13:20:22.724Z,9.60
2023-05-25T13:22:50.389Z,10.50
2023-05-25T13:25:17.294Z,10.45
2023-05-25T13:27:46.812Z,9.27
2023-05-25T13:30:13.869Z,9.45
2023-05-25T13:32:43.579Z,9.73
2023-05-25T13:35:18.659Z,9.10
2023-05-25T13:37:53.143Z,9.60
2023-05-25T13:40:22.462Z,9.48
2023-05-25T13:42:49.939Z,8.40
2023-05-25T13:45:16.749Z,8.60
2023-05-25T13:47:44.101Z,8.80
2023-05-25T13:50:11.695Z,8.40
2023-05-25T13:52:41.002Z,8.40
2023-05-25T13:55:08.201Z,8.38
2023-05-25T13:57:35.124Z,7.93
2023-05-25T14:00:04.278Z,8.68
2023-05-25T14:02:35.190Z,8.25
2023-05-25T14:05:02.185Z,8.13
2023-05-25T14:07:28.971Z,7.68
2023-05-25T14:10:00.284Z,8.00
2023-05-25T14:12:32.242Z,8.10
2023-05-25T14:14:59.073Z,7.82
2023-05-25T14:17:28.433Z,8.00
2023-05-25T14:19:55.521Z,7.32
2023-05-25T14:22:22.353Z,7.03
2023-05-25T14:24:49.108Z,7.18
2023-05-25T14:27:21.092Z,7.57
2023-05-25T14:29:52.315Z,6.85
2023-05-25T14:32:19.207Z,8.48
2023-05-25T14:34:46.026Z,8.32
2023-05-25T14:37:12.967Z,8.00
2023-05-25T14:39:44.542Z,7.80
2023-05-25T14:42:11.425Z,7.97
2023-05-25T14:44:38.245Z,8.07
2023-05-25T14:47:05.569Z,8.35
2023-05-25T14:49:32.453Z,8.57
2023-05-25T14:51:59.352Z,8.93
2023-05-25T14:54:26.286Z,8.57
2023-05-25T14:56:55.361Z,8.75
2023-05-25T14:59:24.485Z,8.43
2023-05-25T15:01:53.522Z,8.23
2023-05-25T15:04:22.760Z,8.48
2023-05-25T15:06:49.769Z,8.07
2023-05-25T15:09:19.233Z,7.93
2023-05-25T15:11:48.495Z,8.32
2023-05-25T15:14:16.458Z,8.18
2023-05-25T15:16:43.545Z,8.77
2023-05-25T15:19:13.222Z,8.27
2023-05-25T15:21:42.037Z,8.60
2023-05-25T15:24:09.022Z,8.10
2023-05-25T15:26:35.805Z,8.77
2023-05-25T15:29:02.583Z,8.15
2023-05-25T15:31:31.901Z,8.23
2023-05-25T15:34:00.721Z,8.43
2023-05-25T15:36:27.566Z,7.88
2023-05-25T15:38:54.349Z,8.57
2023-05-25T15:41:21.904Z,7.95
2023-05-25T15:43:52.383Z,7.50
2023-05-25T15:46:21.484Z,7.80
2023-05-25T15:48:48.425Z,8.18
2023-05-25T15:51:15.358Z,7.55
2023-05-25T15:53:42.184Z,7.82
2023-05-25T15:56:09.002Z,8.60
2023-05-25T15:58:35.910Z,8.27
2023-05-25T16:01:05.138Z,8.32
2023-05-25T16:03:32.093Z,8.40
2023-05-25T16:06:03.653Z,8.43
2023-05-25T16:08:32.902Z,9.10
2023-05-25T16:10:59.672Z,8.88
2023-05-25T16:13:26.477Z,8.90
2023-05-25T16:15:53.370Z,8.18
2023-05-25T16:18:22.467Z,8.45
2023-05-25T16:20:55.830Z,8.90
2023-05-25T16:23:23.549Z,8.48
2023-05-25T16:25:52.693Z,8.57
2023-05-25T16:28:19.572Z,8.70
2023-05-25T16:30:46.375Z,8.73
2023-05-25T16:33:13.217Z,8.73
2023-05-25T16:35:42.466Z,8.32
2023-05-25T16:38:11.647Z,9.07
2023-05-25T16:40:40.758Z,8.45
2023-05-25T16:43:07.554Z,8.30
2023-05-25T16:45:34.420Z,8.93
2023-05-25T16:48:01.401Z,8.45
2023-05-25T16:50:28.262Z,8.80
2023-05-25T16:52:55.184Z,9.25
2023-05-25T16:55:22.055Z,9.23
2023-05-25T16:57:48.907Z,9.10
2023-05-25T17:00:16.140Z,9.23
2023-05-25T17:02:45.553Z,9.35
2023-05-25T17:05:12.520Z,9.65
2023-05-25T17:07:40.310Z,9.07
2023-05-25T17:10:08.270Z,9.25
2023-05-25T17:12:37.534Z,9.20
2023-05-25T17:15:05.057Z,9.07
2023-05-25T17:17:32.009Z,9.30
2023-05-25T17:20:01.387Z,9.25
2023-05-25T17:22:28.162Z,10.45
2023-05-25T17:24:57.254Z,8.73
2023-05-25T17:27:24.026Z,9.05
2023-05-25T17:29:50.831Z,8.70
2023-05-25T17:32:22.434Z,8.60
2023-05-25T17:34:51.773Z,8.93
2023-05-25T17:37:19.222Z,9.07
2023-05-25T17:39:47.756Z,8.35
2023-05-25T17:42:14.607Z,9.45
2023-05-25T17:44:42.649Z,9.25
2023-05-25T17:47:11.760Z,8.65
2023-05-25T17:49:38.595Z,8.27
2023-05-25T17:52:08.888Z,8.80
2023-05-25T17:54:35.755Z,8.48
2023-05-25T17:57:02.656Z,8.85
2023-05-25T17:59:29.521Z,9.15
2023-05-25T18:01:56.456Z,8.45
2023-05-25T18:04:23.369Z,9.20
2023-05-25T18:06:52.685Z,8.75
2023-05-25T18:09:19.827Z,8.82
2023-05-25T18:11:48.988Z,9.07
2023-05-25T18:14:15.903Z,9.23
2023-05-25T18:16:44.714Z,9.52
2023-05-25T18:19:11.769Z,9.20
2023-05-25T18:21:39.545Z,8.75
2023-05-25T18:24:14.128Z,11.15
2023-05-25T18:26:43.984Z,8.57
2023-05-25T18:29:10.879Z,8.60
2023-05-25T18:31:45.844Z,8.52
2023-05-25T18:34:13.187Z,9.52
2023-05-25T18:36:40.029Z,8.50
2023-05-25T18:39:06.863Z,8.82
2023-05-25T18:41:33.732Z,8.60
2023-05-25T18:44:00.537Z,8.75
2023-05-25T18:46:28.581Z,8.90
2023-05-25T18:48:55.872Z,8.65
2023-05-25T18:51:25.659Z,9.00
2023-05-25T18:53:55.100Z,8.73
2023-05-25T18:56:22.867Z,8.25
2023-05-25T18:58:50.874Z,8.32
2023-05-25T19:01:17.798Z,8.65
2023-05-25T19:03:44.782Z,8.27
2023-05-25T19:06:11.829Z,8.57
2023-05-25T19:08:38.618Z,8.63
2023-05-25T19:11:05.836Z,8.55
2023-05-25T19:13:32.630Z,9.20
2023-05-25T19:16:01.490Z,9.73
2023-05-25T19:18:28.413Z,9.55
2023-05-25T19:20:55.492Z,8.85
2023-05-25T19:23:22.296Z,8.90
2023-05-25T19:25:51.510Z,9.05
2023-05-25T19:28:20.637Z,8.88
2023-05-25T19:30:52.248Z,8.48
2023-05-25T19:33:21.437Z,8.52
2023-05-25T19:35:48.713Z,8.48
2023-05-25T19:38:15.973Z,8.48
2023-05-25T19:40:42.813Z,9.02
2023-05-25T19:43:09.994Z,9.18
2023-05-25T19:45:36.910Z,9.15
2023-05-25T19:48:04.110Z,8.60
2023-05-25T19:50:31.003Z,8.60
2023-05-25T19:52:58.686Z,9.43
2023-05-25T19:55:25.752Z,8.98
2023-05-25T19:57:55.371Z,9.50
2023-05-25T20:00:26.688Z,8.93
2023-05-25T20:02:53.828Z,9.25
2023-05-25T20:05:20.737Z,9.73
2023-05-25T20:07:47.662Z,8.90
2023-05-25T20:10:16.943Z,10.20
2023-05-25T20:12:43.771Z,9.60
2023-05-25T20:15:13.023Z,9.20
2023-05-25T20:17:39.857Z,9.25
2023-05-25T20:20:07.235Z,8.88
2023-05-25T20:22:36.416Z,9.38
2023-05-25T20:25:03.294Z,8.95
2023-05-25T20:27:32.455Z,9.30
2023-05-25T20:29:59.238Z,9.65
2023-05-25T20:32:26.057Z,9.25
2023-05-25T20:34:52.897Z,9.43
2023-05-25T20:37:21.965Z,9.65
2023-05-25T20:39:48.775Z,9.73
2023-05-25T20:42:15.590Z,9.63
2023-05-25T20:44:42.430Z,9.75
2023-05-25T20:47:11.387Z,9.70
2023-05-25T20:49:38.236Z,9.20
2023-05-25T20:52:05.305Z,9.60
2023-05-25T20:54:34.573Z,9.70
2023-05-25T20:57:04.058Z,10.13
2023-05-25T20:59:31.847Z,10.55
2023-05-25T21:01:58.778Z,10.52
2023-05-25T21:04:25.881Z,10.48
2023-05-25T21:06:52.689Z,10.38
2023-05-25T21:09:19.592Z,10.77
2023-05-25T21:11:46.405Z,10.45
2023-05-25T21:14:16.068Z,10.68
2023-05-25T21:16:43.676Z,10.70
2023-05-25T21:19:11.554Z,10.68
2023-05-25T21:21:38.370Z,10.60
2023-05-25T21:24:05.616Z,10.32
2023-05-25T21:26:37.069Z,9.85
2023-05-25T21:29:07.718Z,10.20
2023-05-25T21:31:34.759Z,10.32
2023-05-25T21:34:04.433Z,10.70
2023-05-25T21:36:32.402Z,10.68
2023-05-25T21:38:59.190Z,10.25
2023-05-25T21:41:27.318Z,9.93
2023-05-25T21:43:54.104Z,9.40
2023-05-25T21:46:20.886Z,8.68
2023-05-25T21:48:47.710Z,8.27
2023-05-25T21:51:14.500Z,7.65
2023-05-25T21:53:41.379Z,7.18
2023-05-25T21:56:08.223Z,7.40
2023-05-25T21:58:35.060Z,7.05
2023-05-25T22:01:01.947Z,6.90
2023-05-25T22:03:28.856Z,7.20
2023-05-25T22:05:55.745Z,6.75
2023-05-25T22:08:22.573Z,6.13
2023-05-25T22:10:51.881Z,6.93
2023-05-25T22:13:18.666Z,6.75
2023-05-25T22:15:48.317Z,7.28
2023-05-25T22:18:15.122Z,7.20
2023-05-25T22:20:42.352Z,6.93
2023-05-25T22:23:11.406Z,6.88
2023-05-25T22:25:38.192Z,7.47
2023-05-25T22:28:05.072Z,6.78
2023-05-25T22:30:31.984Z,6.82
2023-05-25T22:32:58.849Z,6.97
2023-05-25T22:35:25.702Z,7.72
2023-05-25T22:37:52.694Z,7.20
2023-05-25T22:40:19.471Z,7.03
2023-05-25T22:42:50.225Z,7.38
2023-05-25T22:45:20.548Z,7.70
2023-05-25T22:47:47.856Z,7.32
2023-05-25T22:50:14.779Z,7.00
2023-05-25T22:52:43.885Z,6.87
2023-05-25T22:55:11.049Z,7.22
2023-05-25T22:57:38.112Z,6.75
2023-05-25T23:00:05.427Z,6.60
2023-05-25T23:02:32.379Z,7.32
2023-05-25T23:04:59.294Z,6.65
2023-05-25T23:07:26.301Z,6.63
2023-05-25T23:09:53.136Z,7.53
2023-05-25T23:12:20.089Z,6.88
2023-05-25T23:14:46.978Z,7.47
2023-05-25T23:17:13.923Z,7.43
2023-05-25T23:19:44.823Z,7.20
2023-05-25T23:22:11.697Z,7.22
2023-05-25T23:24:38.750Z,7.70
2023-05-25T23:27:06.877Z,7.70
2023-05-25T23:29:33.704Z,7.80
2023-05-25T23:32:03.016Z,7.80
2023-05-25T23:34:30.097Z,8.13
2023-05-25T23:36:58.239Z,7.90
2023-05-25T23:39:25.303Z,6.73
2023-05-25T23:41:52.283Z,7.32
2023-05-25T23:44:23.566Z,7.20
2023-05-25T23:46:53.155Z,5.77
2023-05-25T23:49:20.141Z,6.00
2023-05-25T23:51:46.977Z,5.13
2023-05-25T23:54:16.055Z,5.20
2023-05-25T23:56:42.904Z,5.60
2023-05-25T23:59:09.786Z,5.23
